sensor_id;sensor_type;location;lat;lon;timestamp;temperature;humidity
9975;DHT22;5028;50.974;4.968;2022-12-29T00:00:17;11.00;99.90
9975;DHT22;5028;50.974;4.968;2022-12-29T00:02:52;11.00;99.90
9975;DHT22;5028;50.974;4.968;2022-12-29T00:05:20;11.00;99.90
9975;DHT22;5028;50.974;4.968;2022-12-29T00:07:56;11.00;99.90
9975;DHT22;5028;50.974;4.968;2022-12-29T00:10:24;11.00;99.90
9975;DHT22;5028;50.974;4.968;2022-12-29T00:13:00;11.00;99.90
9975;DHT22;5028;50.974;4.968;2022-12-29T00:15:46;11.00;99.90
9975;DHT22;5028;50.974;4.968;2022-12-29T00:18:21;11.10;99.90
9975;DHT22;5028;50.974;4.968;2022-12-29T00:20:49;11.10;99.90
9975;DHT22;5028;50.974;4.968;2022-12-29T00:23:47;11.10;99.90
9975;DHT22;5028;50.974;4.968;2022-12-29T00:26:33;11.10;99.90
9975;DHT22;5028;50.974;4.968;2022-12-29T00:29:26;11.10;99.90
9975;DHT22;5028;50.974;4.968;2022-12-29T00:32:12;11.10;99.90
9975;DHT22;5028;50.974;4.968;2022-12-29T00:35:08;11.10;99.90
9975;DHT22;5028;50.974;4.968;2022-12-29T00:37:37;11.10;99.90
9975;DHT22;5028;50.974;4.968;2022-12-29T00:40:31;11.20;99.90
9975;DHT22;5028;50.974;4.968;2022-12-29T00:43:24;11.20;99.90
9975;DHT22;5028;50.974;4.968;2022-12-29T00:46:11;11.20;99.90
9975;DHT22;5028;50.974;4.968;2022-12-29T00:48:47;11.20;99.90
9975;DHT22;5028;50.974;4.968;2022-12-29T00:51:32;11.30;99.90
9975;DHT22;5028;50.974;4.968;2022-12-29T00:54:08;11.30;99.90
9975;DHT22;5028;50.974;4.968;2022-12-29T00:56:37;11.30;99.90
9975;DHT22;5028;50.974;4.968;2022-12-29T00:59:07;11.30;99.90
9975;DHT22;5028;50.974;4.968;2022-12-29T01:01:45;11.30;99.90
9975;DHT22;5028;50.974;4.968;2022-12-29T01:04:22;11.30;99.90
9975;DHT22;5028;50.974;4.968;2022-12-29T01:06:51;11.30;99.90
9975;DHT22;5028;50.974;4.968;2022-12-29T01:09:20;11.30;99.90
9975;DHT22;5028;50.974;4.968;2022-12-29T01:12:19;11.40;99.90
9975;DHT22;5028;50.974;4.968;2022-12-29T01:15:14;11.40;99.90
9975;DHT22;5028;50.974;4.968;2022-12-29T01:17:44;11.40;99.90
9975;DHT22;5028;50.974;4.968;2022-12-29T01:20:19;11.40;99.90
9975;DHT22;5028;50.974;4.968;2022-12-29T01:22:48;11.40;99.90
9975;DHT22;5028;50.974;4.968;2022-12-29T01:25:23;11.40;99.90
9975;DHT22;5028;50.974;4.968;2022-12-29T01:27:52;11.40;99.90
9975;DHT22;5028;50.974;4.968;2022-12-29T01:30:27;11.50;99.90
9975;DHT22;5028;50.974;4.968;2022-12-29T01:32:57;11.50;99.90
9975;DHT22;5028;50.974;4.968;2022-12-29T01:35:33;11.50;99.90
9975;DHT22;5028;50.974;4.968;2022-12-29T01:38:01;11.50;99.90
9975;DHT22;5028;50.974;4.968;2022-12-29T01:40:43;11.40;99.90
9975;DHT22;5028;50.974;4.968;2022-12-29T01:43:13;11.40;99.90
9975;DHT22;5028;50.974;4.968;2022-12-29T01:45:51;11.30;99.90
9975;DHT22;5028;50.974;4.968;2022-12-29T01:48:21;11.20;99.90
9975;DHT22;5028;50.974;4.968;2022-12-29T01:50:56;11.10;99.90
9975;DHT22;5028;50.974;4.968;2022-12-29T01:53:27;11.00;99.90
9975;DHT22;5028;50.974;4.968;2022-12-29T01:56:06;11.00;99.90
9975;DHT22;5028;50.974;4.968;2022-12-29T01:58:39;11.00;99.90
9975;DHT22;5028;50.974;4.968;2022-12-29T02:01:18;10.90;99.90
9975;DHT22;5028;50.974;4.968;2022-12-29T02:03:49;10.90;99.90
9975;DHT22;5028;50.974;4.968;2022-12-29T02:06:28;10.90;99.90
9975;DHT22;5028;50.974;4.968;2022-12-29T02:08:57;10.80;99.90
9975;DHT22;5028;50.974;4.968;2022-12-29T02:11:34;10.70;99.90
9975;DHT22;5028;50.974;4.968;2022-12-29T02:14:11;10.70;99.90
9975;DHT22;5028;50.974;4.968;2022-12-29T02:16:58;10.50;99.90
9975;DHT22;5028;50.974;4.968;2022-12-29T02:19:53;10.50;99.90
9975;DHT22;5028;50.974;4.968;2022-12-29T02:22:37;10.30;99.90
9975;DHT22;5028;50.974;4.968;2022-12-29T02:25:33;10.30;99.90
9975;DHT22;5028;50.974;4.968;2022-12-29T02:31:17;10.30;99.90
9975;DHT22;5028;50.974;4.968;2022-12-29T02:34:03;10.20;99.90
9975;DHT22;5028;50.974;4.968;2022-12-29T02:36:42;10.20;99.90
9975;DHT22;5028;50.974;4.968;2022-12-29T02:39:23;10.20;99.90
9975;DHT22;5028;50.974;4.968;2022-12-29T02:42:01;10.20;99.90
9975;DHT22;5028;50.974;4.968;2022-12-29T02:44:46;10.20;99.90
9975;DHT22;5028;50.974;4.968;2022-12-29T02:47:26;10.20;99.90
9975;DHT22;5028;50.974;4.968;2022-12-29T02:50:07;10.20;99.90
9975;DHT22;5028;50.974;4.968;2022-12-29T02:52:40;10.20;99.90
9975;DHT22;5028;50.974;4.968;2022-12-29T02:55:17;10.20;99.90
9975;DHT22;5028;50.974;4.968;2022-12-29T02:57:45;10.10;99.90
9975;DHT22;5028;50.974;4.968;2022-12-29T03:00:20;10.10;99.90
9975;DHT22;5028;50.974;4.968;2022-12-29T03:03:04;10.10;99.90
9975;DHT22;5028;50.974;4.968;2022-12-29T03:05:59;9.90;99.90
9975;DHT22;5028;50.974;4.968;2022-12-29T03:08:34;9.90;99.90
9975;DHT22;5028;50.974;4.968;2022-12-29T03:11:20;9.80;99.90
9975;DHT22;5028;50.974;4.968;2022-12-29T03:14:31;9.80;99.90
9975;DHT22;5028;50.974;4.968;2022-12-29T03:17:28;9.70;99.90
9975;DHT22;5028;50.974;4.968;2022-12-29T03:20:04;9.70;99.90
9975;DHT22;5028;50.974;4.968;2022-12-29T03:22:44;9.60;99.90
9975;DHT22;5028;50.974;4.968;2022-12-29T03:25:20;9.40;99.90
9975;DHT22;5028;50.974;4.968;2022-12-29T03:28:00;9.30;99.90
9975;DHT22;5028;50.974;4.968;2022-12-29T03:30:30;9.20;99.90
9975;DHT22;5028;50.974;4.968;2022-12-29T03:33:09;9.20;99.90
9975;DHT22;5028;50.974;4.968;2022-12-29T03:35:42;9.10;99.90
9975;DHT22;5028;50.974;4.968;2022-12-29T03:38:23;9.00;99.90
9975;DHT22;5028;50.974;4.968;2022-12-29T03:40:55;9.10;99.90
9975;DHT22;5028;50.974;4.968;2022-12-29T03:43:32;9.10;99.90
9975;DHT22;5028;50.974;4.968;2022-12-29T03:46:01;9.00;99.90
9975;DHT22;5028;50.974;4.968;2022-12-29T03:48:36;9.00;99.90
9975;DHT22;5028;50.974;4.968;2022-12-29T03:51:06;9.00;99.90
9975;DHT22;5028;50.974;4.968;2022-12-29T03:53:41;9.00;99.90
9975;DHT22;5028;50.974;4.968;2022-12-29T03:56:09;9.00;99.90
9975;DHT22;5028;50.974;4.968;2022-12-29T03:58:45;9.00;99.90
9975;DHT22;5028;50.974;4.968;2022-12-29T04:01:13;9.00;99.90
9975;DHT22;5028;50.974;4.968;2022-12-29T04:03:48;9.00;99.90
9975;DHT22;5028;50.974;4.968;2022-12-29T04:06:18;9.00;99.90
9975;DHT22;5028;50.974;4.968;2022-12-29T04:08:53;9.10;99.90
9975;DHT22;5028;50.974;4.968;2022-12-29T04:11:28;9.10;99.90
9975;DHT22;5028;50.974;4.968;2022-12-29T04:14:03;9.20;99.90
9975;DHT22;5028;50.974;4.968;2022-12-29T04:16:33;9.20;99.90
9975;DHT22;5028;50.974;4.968;2022-12-29T04:19:09;9.20;99.90
9975;DHT22;5028;50.974;4.968;2022-12-29T04:21:39;9.20;99.90
9975;DHT22;5028;50.974;4.968;2022-12-29T04:24:14;9.20;99.90
9975;DHT22;5028;50.974;4.968;2022-12-29T04:26:44;9.30;99.90
9975;DHT22;5028;50.974;4.968;2022-12-29T04:29:19;9.40;99.90
9975;DHT22;5028;50.974;4.968;2022-12-29T04:31:47;9.40;99.90
9975;DHT22;5028;50.974;4.968;2022-12-29T04:34:22;9.40;99.90
9975;DHT22;5028;50.974;4.968;2022-12-29T04:36:52;9.50;99.90
9975;DHT22;5028;50.974;4.968;2022-12-29T04:39:27;9.50;99.90
9975;DHT22;5028;50.974;4.968;2022-12-29T04:41:55;9.40;99.90
9975;DHT22;5028;50.974;4.968;2022-12-29T04:44:31;9.40;99.90
9975;DHT22;5028;50.974;4.968;2022-12-29T04:47:02;9.40;99.90
9975;DHT22;5028;50.974;4.968;2022-12-29T04:49:37;9.40;99.90
9975;DHT22;5028;50.974;4.968;2022-12-29T04:52:07;9.40;99.90
9975;DHT22;5028;50.974;4.968;2022-12-29T04:54:44;9.50;99.90
9975;DHT22;5028;50.974;4.968;2022-12-29T04:57:12;9.50;99.90
9975;DHT22;5028;50.974;4.968;2022-12-29T04:59:47;9.60;99.90
9975;DHT22;5028;50.974;4.968;2022-12-29T05:02:16;9.60;99.90
9975;DHT22;5028;50.974;4.968;2022-12-29T05:04:51;9.60;99.90
9975;DHT22;5028;50.974;4.968;2022-12-29T05:07:21;9.70;99.90
9975;DHT22;5028;50.974;4.968;2022-12-29T05:09:56;9.70;99.90
9975;DHT22;5028;50.974;4.968;2022-12-29T05:12:38;9.70;99.90
9975;DHT22;5028;50.974;4.968;2022-12-29T05:15:14;9.80;99.90
9975;DHT22;5028;50.974;4.968;2022-12-29T05:17:44;9.80;99.90
9975;DHT22;5028;50.974;4.968;2022-12-29T05:20:19;9.90;99.90
9975;DHT22;5028;50.974;4.968;2022-12-29T05:22:49;9.90;99.90
9975;DHT22;5028;50.974;4.968;2022-12-29T05:25:24;10.00;99.90
9975;DHT22;5028;50.974;4.968;2022-12-29T05:27:53;10.00;99.90
9975;DHT22;5028;50.974;4.968;2022-12-29T05:30:28;10.00;99.90
9975;DHT22;5028;50.974;4.968;2022-12-29T05:32:57;10.10;99.90
9975;DHT22;5028;50.974;4.968;2022-12-29T05:35:33;10.20;99.90
9975;DHT22;5028;50.974;4.968;2022-12-29T05:38:03;10.20;99.90
9975;DHT22;5028;50.974;4.968;2022-12-29T05:40:38;10.20;99.90
9975;DHT22;5028;50.974;4.968;2022-12-29T05:43:07;10.20;99.90
9975;DHT22;5028;50.974;4.968;2022-12-29T05:45:44;10.10;99.90
9975;DHT22;5028;50.974;4.968;2022-12-29T05:48:16;10.10;99.90
9975;DHT22;5028;50.974;4.968;2022-12-29T05:50:51;10.10;99.90
9975;DHT22;5028;50.974;4.968;2022-12-29T05:53:21;10.10;99.90
9975;DHT22;5028;50.974;4.968;2022-12-29T05:55:56;10.10;99.90
9975;DHT22;5028;50.974;4.968;2022-12-29T05:58:31;10.10;99.90
9975;DHT22;5028;50.974;4.968;2022-12-29T06:01:00;10.10;99.90
9975;DHT22;5028;50.974;4.968;2022-12-29T06:03:34;10.20;99.90
9975;DHT22;5028;50.974;4.968;2022-12-29T06:06:08;10.20;99.90
9975;DHT22;5028;50.974;4.968;2022-12-29T06:08:45;10.20;99.90
9975;DHT22;5028;50.974;4.968;2022-12-29T06:11:13;10.30;99.90
9975;DHT22;5028;50.974;4.968;2022-12-29T06:13:48;10.30;99.90
9975;DHT22;5028;50.974;4.968;2022-12-29T06:16:17;10.30;99.90
9975;DHT22;5028;50.974;4.968;2022-12-29T06:18:52;10.30;99.90
9975;DHT22;5028;50.974;4.968;2022-12-29T06:21:20;10.30;99.90
9975;DHT22;5028;50.974;4.968;2022-12-29T06:23:56;10.20;99.90
9975;DHT22;5028;50.974;4.968;2022-12-29T06:26:25;10.20;99.90
9975;DHT22;5028;50.974;4.968;2022-12-29T06:29:00;10.20;99.90
9975;DHT22;5028;50.974;4.968;2022-12-29T06:31:29;10.20;99.90
9975;DHT22;5028;50.974;4.968;2022-12-29T06:34:04;10.30;99.90
9975;DHT22;5028;50.974;4.968;2022-12-29T06:36:34;10.30;99.90
9975;DHT22;5028;50.974;4.968;2022-12-29T06:39:11;10.30;99.90
9975;DHT22;5028;50.974;4.968;2022-12-29T06:41:40;10.30;99.90
9975;DHT22;5028;50.974;4.968;2022-12-29T06:44:15;10.40;99.90
9975;DHT22;5028;50.974;4.968;2022-12-29T06:46:43;10.40;99.90
9975;DHT22;5028;50.974;4.968;2022-12-29T06:49:18;10.40;99.90
9975;DHT22;5028;50.974;4.968;2022-12-29T06:51:46;10.30;99.90
9975;DHT22;5028;50.974;4.968;2022-12-29T06:54:23;10.30;99.90
9975;DHT22;5028;50.974;4.968;2022-12-29T06:56:51;10.30;99.90
9975;DHT22;5028;50.974;4.968;2022-12-29T06:59:26;10.30;99.90
9975;DHT22;5028;50.974;4.968;2022-12-29T07:01:55;10.20;99.90
9975;DHT22;5028;50.974;4.968;2022-12-29T07:04:30;10.20;99.90
9975;DHT22;5028;50.974;4.968;2022-12-29T07:06:59;10.30;99.90
9975;DHT22;5028;50.974;4.968;2022-12-29T07:09:36;10.30;99.90
9975;DHT22;5028;50.974;4.968;2022-12-29T07:12:04;10.30;99.90
9975;DHT22;5028;50.974;4.968;2022-12-29T07:14:46;10.30;99.90
9975;DHT22;5028;50.974;4.968;2022-12-29T07:17:15;10.40;99.90
9975;DHT22;5028;50.974;4.968;2022-12-29T07:19:50;10.30;99.90
9975;DHT22;5028;50.974;4.968;2022-12-29T07:22:19;10.30;99.90
9975;DHT22;5028;50.974;4.968;2022-12-29T07:24:56;10.30;99.90
9975;DHT22;5028;50.974;4.968;2022-12-29T07:27:24;10.30;99.90
9975;DHT22;5028;50.974;4.968;2022-12-29T07:29:59;10.30;99.90
9975;DHT22;5028;50.974;4.968;2022-12-29T07:32:28;10.30;99.90
9975;DHT22;5028;50.974;4.968;2022-12-29T07:35:07;10.30;99.90
9975;DHT22;5028;50.974;4.968;2022-12-29T07:37:35;10.30;99.90
9975;DHT22;5028;50.974;4.968;2022-12-29T07:40:12;10.30;99.90
9975;DHT22;5028;50.974;4.968;2022-12-29T07:42:41;10.40;99.90
9975;DHT22;5028;50.974;4.968;2022-12-29T07:45:16;10.30;99.90
9975;DHT22;5028;50.974;4.968;2022-12-29T07:47:47;10.30;99.90
9975;DHT22;5028;50.974;4.968;2022-12-29T07:50:22;10.30;99.90
9975;DHT22;5028;50.974;4.968;2022-12-29T07:52:51;10.30;99.90
9975;DHT22;5028;50.974;4.968;2022-12-29T07:55:28;10.30;99.90
9975;DHT22;5028;50.974;4.968;2022-12-29T07:57:56;10.30;99.90
9975;DHT22;5028;50.974;4.968;2022-12-29T08:00:31;10.30;99.90
9975;DHT22;5028;50.974;4.968;2022-12-29T08:02:59;10.30;99.90
9975;DHT22;5028;50.974;4.968;2022-12-29T08:05:35;10.30;99.90
9975;DHT22;5028;50.974;4.968;2022-12-29T08:08:04;10.30;99.90
9975;DHT22;5028;50.974;4.968;2022-12-29T08:10:47;10.40;99.90
9975;DHT22;5028;50.974;4.968;2022-12-29T08:13:29;10.40;99.90
9975;DHT22;5028;50.974;4.968;2022-12-29T08:15:58;10.30;99.90
9975;DHT22;5028;50.974;4.968;2022-12-29T08:18:36;10.30;99.90
9975;DHT22;5028;50.974;4.968;2022-12-29T08:21:05;10.30;99.90
9975;DHT22;5028;50.974;4.968;2022-12-29T08:23:40;10.30;99.90
9975;DHT22;5028;50.974;4.968;2022-12-29T08:26:10;10.30;99.90
9975;DHT22;5028;50.974;4.968;2022-12-29T08:28:45;10.30;99.90
9975;DHT22;5028;50.974;4.968;2022-12-29T08:31:13;10.30;99.90
9975;DHT22;5028;50.974;4.968;2022-12-29T08:33:48;10.40;99.90
9975;DHT22;5028;50.974;4.968;2022-12-29T08:36:17;10.40;99.90
9975;DHT22;5028;50.974;4.968;2022-12-29T08:38:52;10.50;99.90
9975;DHT22;5028;50.974;4.968;2022-12-29T08:41:22;10.40;99.90
9975;DHT22;5028;50.974;4.968;2022-12-29T08:43:57;10.40;99.90
9975;DHT22;5028;50.974;4.968;2022-12-29T08:46:26;10.40;99.90
9975;DHT22;5028;50.974;4.968;2022-12-29T08:49:00;10.50;99.90
9975;DHT22;5028;50.974;4.968;2022-12-29T08:51:30;10.40;99.90
9975;DHT22;5028;50.974;4.968;2022-12-29T08:54:05;10.40;99.90
9975;DHT22;5028;50.974;4.968;2022-12-29T08:56:35;10.40;99.90
9975;DHT22;5028;50.974;4.968;2022-12-29T08:59:10;10.40;99.90
9975;DHT22;5028;50.974;4.968;2022-12-29T09:01:39;10.40;99.90
9975;DHT22;5028;50.974;4.968;2022-12-29T09:04:14;10.30;99.90
9975;DHT22;5028;50.974;4.968;2022-12-29T09:06:44;10.40;99.90
9975;DHT22;5028;50.974;4.968;2022-12-29T09:09:20;10.40;99.90
9975;DHT22;5028;50.974;4.968;2022-12-29T09:11:56;10.40;99.90
9975;DHT22;5028;50.974;4.968;2022-12-29T09:14:38;10.40;99.90
9975;DHT22;5028;50.974;4.968;2022-12-29T09:17:07;10.40;99.90
9975;DHT22;5028;50.974;4.968;2022-12-29T09:19:58;10.40;99.90
9975;DHT22;5028;50.974;4.968;2022-12-29T09:22:27;10.40;99.90
9975;DHT22;5028;50.974;4.968;2022-12-29T09:25:01;10.40;99.90
9975;DHT22;5028;50.974;4.968;2022-12-29T09:27:31;10.40;99.90
9975;DHT22;5028;50.974;4.968;2022-12-29T09:30:08;10.40;99.90
9975;DHT22;5028;50.974;4.968;2022-12-29T09:32:38;10.40;99.90
9975;DHT22;5028;50.974;4.968;2022-12-29T09:35:20;10.40;99.90
9975;DHT22;5028;50.974;4.968;2022-12-29T09:37:49;10.40;99.90
9975;DHT22;5028;50.974;4.968;2022-12-29T09:40:27;10.50;99.90
9975;DHT22;5028;50.974;4.968;2022-12-29T09:43:10;10.50;99.90
9975;DHT22;5028;50.974;4.968;2022-12-29T09:45:58;10.50;99.90
9975;DHT22;5028;50.974;4.968;2022-12-29T09:48:31;10.50;99.90
9975;DHT22;5028;50.974;4.968;2022-12-29T09:51:10;10.60;99.90
9975;DHT22;5028;50.974;4.968;2022-12-29T09:53:42;10.60;99.90
9975;DHT22;5028;50.974;4.968;2022-12-29T09:56:21;10.60;99.90
9975;DHT22;5028;50.974;4.968;2022-12-29T09:58:54;10.60;99.90
9975;DHT22;5028;50.974;4.968;2022-12-29T10:01:46;10.60;99.90
9975;DHT22;5028;50.974;4.968;2022-12-29T10:04:15;10.60;99.90
9975;DHT22;5028;50.974;4.968;2022-12-29T10:06:54;10.60;99.90
9975;DHT22;5028;50.974;4.968;2022-12-29T10:09:48;10.60;99.90
9975;DHT22;5028;50.974;4.968;2022-12-29T10:12:46;10.70;99.90
9975;DHT22;5028;50.974;4.968;2022-12-29T10:15:49;10.60;99.90
9975;DHT22;5028;50.974;4.968;2022-12-29T10:18:49;10.60;99.90
9975;DHT22;5028;50.974;4.968;2022-12-29T10:21:28;10.70;99.90
9975;DHT22;5028;50.974;4.968;2022-12-29T10:24:09;10.70;99.90
9975;DHT22;5028;50.974;4.968;2022-12-29T10:26:40;10.80;99.90
9975;DHT22;5028;50.974;4.968;2022-12-29T10:29:18;10.70;99.90
9975;DHT22;5028;50.974;4.968;2022-12-29T10:31:52;10.80;99.90
9975;DHT22;5028;50.974;4.968;2022-12-29T10:34:31;10.80;99.90
9975;DHT22;5028;50.974;4.968;2022-12-29T10:37:09;10.80;99.90
9975;DHT22;5028;50.974;4.968;2022-12-29T10:39:50;10.70;99.90
9975;DHT22;5028;50.974;4.968;2022-12-29T10:42:25;10.70;99.90
9975;DHT22;5028;50.974;4.968;2022-12-29T10:45:00;10.70;99.90
9975;DHT22;5028;50.974;4.968;2022-12-29T10:47:47;10.70;99.90
9975;DHT22;5028;50.974;4.968;2022-12-29T10:50:37;10.70;99.90
9975;DHT22;5028;50.974;4.968;2022-12-29T10:53:18;10.80;99.90
9975;DHT22;5028;50.974;4.968;2022-12-29T10:55:54;10.80;99.90
9975;DHT22;5028;50.974;4.968;2022-12-29T10:58:24;10.80;99.90
9975;DHT22;5028;50.974;4.968;2022-12-29T11:01:00;10.80;99.90
9975;DHT22;5028;50.974;4.968;2022-12-29T11:03:52;10.80;99.90
9975;DHT22;5028;50.974;4.968;2022-12-29T11:06:32;10.80;99.90
9975;DHT22;5028;50.974;4.968;2022-12-29T11:09:09;10.80;99.90
9975;DHT22;5028;50.974;4.968;2022-12-29T11:11:53;10.80;99.90
9975;DHT22;5028;50.974;4.968;2022-12-29T11:14:27;10.80;99.90
9975;DHT22;5028;50.974;4.968;2022-12-29T11:17:04;10.90;99.90
9975;DHT22;5028;50.974;4.968;2022-12-29T11:19:34;10.90;99.90
9975;DHT22;5028;50.974;4.968;2022-12-29T11:22:19;10.90;99.90
9975;DHT22;5028;50.974;4.968;2022-12-29T11:24:49;10.90;99.90
9975;DHT22;5028;50.974;4.968;2022-12-29T11:27:25;10.90;99.90
9975;DHT22;5028;50.974;4.968;2022-12-29T11:29:54;10.90;99.90
9975;DHT22;5028;50.974;4.968;2022-12-29T11:32:29;10.90;99.90
9975;DHT22;5028;50.974;4.968;2022-12-29T11:35:00;10.90;99.90
9975;DHT22;5028;50.974;4.968;2022-12-29T11:37:38;10.90;99.90
9975;DHT22;5028;50.974;4.968;2022-12-29T11:40:15;10.90;99.90
9975;DHT22;5028;50.974;4.968;2022-12-29T11:42:53;10.80;99.90
9975;DHT22;5028;50.974;4.968;2022-12-29T11:45:25;10.90;99.90
9975;DHT22;5028;50.974;4.968;2022-12-29T11:48:05;10.90;99.90
9975;DHT22;5028;50.974;4.968;2022-12-29T11:50:39;10.90;99.90
9975;DHT22;5028;50.974;4.968;2022-12-29T11:53:17;11.00;99.90
9975;DHT22;5028;50.974;4.968;2022-12-29T11:55:52;11.00;99.90
9975;DHT22;5028;50.974;4.968;2022-12-29T11:58:31;11.00;99.90
9975;DHT22;5028;50.974;4.968;2022-12-29T12:01:02;11.00;99.90
9975;DHT22;5028;50.974;4.968;2022-12-29T12:03:44;10.90;99.90
9975;DHT22;5028;50.974;4.968;2022-12-29T12:06:18;11.00;99.90
9975;DHT22;5028;50.974;4.968;2022-12-29T12:08:56;10.90;99.90
9975;DHT22;5028;50.974;4.968;2022-12-29T12:11:40;10.90;99.90
9975;DHT22;5028;50.974;4.968;2022-12-29T12:14:27;10.80;99.90
9975;DHT22;5028;50.974;4.968;2022-12-29T12:17:09;10.80;99.90
9975;DHT22;5028;50.974;4.968;2022-12-29T12:19:43;10.70;99.90
9975;DHT22;5028;50.974;4.968;2022-12-29T12:22:27;10.70;99.90
9975;DHT22;5028;50.974;4.968;2022-12-29T12:25:01;10.70;99.90
9975;DHT22;5028;50.974;4.968;2022-12-29T12:27:43;10.60;99.90
9975;DHT22;5028;50.974;4.968;2022-12-29T12:30:19;10.60;99.90
9975;DHT22;5028;50.974;4.968;2022-12-29T12:32:58;10.60;99.90
9975;DHT22;5028;50.974;4.968;2022-12-29T12:35:38;10.60;99.90
9975;DHT22;5028;50.974;4.968;2022-12-29T12:38:24;10.60;99.90
9975;DHT22;5028;50.974;4.968;2022-12-29T12:41:05;10.50;99.90
9975;DHT22;5028;50.974;4.968;2022-12-29T12:43:50;10.50;99.90
9975;DHT22;5028;50.974;4.968;2022-12-29T12:50:01;10.40;99.90
9975;DHT22;5028;50.974;4.968;2022-12-29T12:52:39;10.40;99.90
9975;DHT22;5028;50.974;4.968;2022-12-29T12:55:30;10.40;99.90
9975;DHT22;5028;50.974;4.968;2022-12-29T12:58:09;10.40;99.90
9975;DHT22;5028;50.974;4.968;2022-12-29T13:00:55;10.40;99.90
9975;DHT22;5028;50.974;4.968;2022-12-29T13:03:35;10.40;99.90
9975;DHT22;5028;50.974;4.968;2022-12-29T13:06:21;10.40;99.90
9975;DHT22;5028;50.974;4.968;2022-12-29T13:12:08;10.50;99.90
9975;DHT22;5028;50.974;4.968;2022-12-29T13:15:03;10.50;99.90
9975;DHT22;5028;50.974;4.968;2022-12-29T13:17:47;10.50;99.90
9975;DHT22;5028;50.974;4.968;2022-12-29T13:20:26;10.50;99.90
9975;DHT22;5028;50.974;4.968;2022-12-29T13:23:09;10.60;99.90
9975;DHT22;5028;50.974;4.968;2022-12-29T13:25:47;10.50;99.90
9975;DHT22;5028;50.974;4.968;2022-12-29T13:28:30;10.50;99.90
9975;DHT22;5028;50.974;4.968;2022-12-29T13:31:07;10.40;99.90
9975;DHT22;5028;50.974;4.968;2022-12-29T13:33:51;10.60;99.90
9975;DHT22;5028;50.974;4.968;2022-12-29T13:36:27;10.50;99.90
9975;DHT22;5028;50.974;4.968;2022-12-29T13:39:08;10.50;99.90
9975;DHT22;5028;50.974;4.968;2022-12-29T13:41:49;10.50;99.90
9975;DHT22;5028;50.974;4.968;2022-12-29T13:44:30;10.50;99.90
9975;DHT22;5028;50.974;4.968;2022-12-29T13:47:08;10.50;99.90
9975;DHT22;5028;50.974;4.968;2022-12-29T13:49:46;10.50;99.90
9975;DHT22;5028;50.974;4.968;2022-12-29T13:52:21;10.50;99.90
9975;DHT22;5028;50.974;4.968;2022-12-29T13:55:02;10.50;99.90
9975;DHT22;5028;50.974;4.968;2022-12-29T13:57:41;10.50;99.90
9975;DHT22;5028;50.974;4.968;2022-12-29T14:00:22;10.50;99.90
9975;DHT22;5028;50.974;4.968;2022-12-29T14:03:11;10.50;99.90
9975;DHT22;5028;50.974;4.968;2022-12-29T14:06:15;10.40;99.90
9975;DHT22;5028;50.974;4.968;2022-12-29T14:08:44;10.40;99.90
9975;DHT22;5028;50.974;4.968;2022-12-29T14:11:31;10.40;99.90
9975;DHT22;5028;50.974;4.968;2022-12-29T14:14:18;10.40;99.90
9975;DHT22;5028;50.974;4.968;2022-12-29T14:17:09;10.40;99.90
9975;DHT22;5028;50.974;4.968;2022-12-29T14:19:42;10.30;99.90
9975;DHT22;5028;50.974;4.968;2022-12-29T14:22:23;10.30;99.90
9975;DHT22;5028;50.974;4.968;2022-12-29T14:24:59;10.20;99.90
9975;DHT22;5028;50.974;4.968;2022-12-29T14:27:50;10.20;99.90
9975;DHT22;5028;50.974;4.968;2022-12-29T14:30:51;10.20;99.90
9975;DHT22;5028;50.974;4.968;2022-12-29T14:33:30;10.10;99.90
9975;DHT22;5028;50.974;4.968;2022-12-29T14:36:20;10.10;99.90
9975;DHT22;5028;50.974;4.968;2022-12-29T14:38:56;10.00;99.90
9975;DHT22;5028;50.974;4.968;2022-12-29T14:41:27;10.00;99.90
9975;DHT22;5028;50.974;4.968;2022-12-29T14:44:16;9.90;99.90
9975;DHT22;5028;50.974;4.968;2022-12-29T14:46:49;9.90;99.90
9975;DHT22;5028;50.974;4.968;2022-12-29T14:49:32;9.90;99.90
9975;DHT22;5028;50.974;4.968;2022-12-29T14:52:07;9.80;99.90
9975;DHT22;5028;50.974;4.968;2022-12-29T14:54:49;9.90;99.90
9975;DHT22;5028;50.974;4.968;2022-12-29T14:57:27;9.90;99.90
9975;DHT22;5028;50.974;4.968;2022-12-29T15:00:13;9.90;99.90
9975;DHT22;5028;50.974;4.968;2022-12-29T15:02:46;9.80;99.90
9975;DHT22;5028;50.974;4.968;2022-12-29T15:05:32;9.80;99.90
9975;DHT22;5028;50.974;4.968;2022-12-29T15:08:02;9.80;99.90
9975;DHT22;5028;50.974;4.968;2022-12-29T15:10:42;9.80;99.90
9975;DHT22;5028;50.974;4.968;2022-12-29T15:13:18;9.80;99.90
9975;DHT22;5028;50.974;4.968;2022-12-29T15:15:56;9.80;99.90
9975;DHT22;5028;50.974;4.968;2022-12-29T15:18:26;9.80;99.90
9975;DHT22;5028;50.974;4.968;2022-12-29T15:21:05;9.80;99.90
9975;DHT22;5028;50.974;4.968;2022-12-29T15:23:35;9.80;99.90
9975;DHT22;5028;50.974;4.968;2022-12-29T15:26:12;9.50;99.90
9975;DHT22;5028;50.974;4.968;2022-12-29T15:28:48;9.00;99.90
9975;DHT22;5028;50.974;4.968;2022-12-29T15:31:24;8.50;99.90
9975;DHT22;5028;50.974;4.968;2022-12-29T15:34:07;8.20;99.90
9975;DHT22;5028;50.974;4.968;2022-12-29T15:36:50;8.10;99.90
9975;DHT22;5028;50.974;4.968;2022-12-29T15:39:34;8.10;99.90
9975;DHT22;5028;50.974;4.968;2022-12-29T15:42:19;8.10;99.90
9975;DHT22;5028;50.974;4.968;2022-12-29T15:45:05;8.00;99.90
9975;DHT22;5028;50.974;4.968;2022-12-29T15:47:38;8.00;99.90
9975;DHT22;5028;50.974;4.968;2022-12-29T15:50:22;8.00;99.90
9975;DHT22;5028;50.974;4.968;2022-12-29T15:53:02;7.90;99.90
9975;DHT22;5028;50.974;4.968;2022-12-29T15:55:40;7.90;99.90
9975;DHT22;5028;50.974;4.968;2022-12-29T15:58:20;7.90;99.90
9975;DHT22;5028;50.974;4.968;2022-12-29T16:00:57;7.80;99.90
9975;DHT22;5028;50.974;4.968;2022-12-29T16:03:27;7.80;99.90
9975;DHT22;5028;50.974;4.968;2022-12-29T16:06:09;7.70;99.90
9975;DHT22;5028;50.974;4.968;2022-12-29T16:08:40;7.70;99.90
9975;DHT22;5028;50.974;4.968;2022-12-29T16:11:21;7.60;99.90
9975;DHT22;5028;50.974;4.968;2022-12-29T16:13:58;7.60;99.90
9975;DHT22;5028;50.974;4.968;2022-12-29T16:16:36;7.60;99.90
9975;DHT22;5028;50.974;4.968;2022-12-29T16:19:12;7.60;99.90
9975;DHT22;5028;50.974;4.968;2022-12-29T16:21:48;7.60;99.90
9975;DHT22;5028;50.974;4.968;2022-12-29T16:24:21;7.60;99.90
9975;DHT22;5028;50.974;4.968;2022-12-29T16:26:59;7.60;99.90
9975;DHT22;5028;50.974;4.968;2022-12-29T16:29:30;7.60;99.90
9975;DHT22;5028;50.974;4.968;2022-12-29T16:32:24;7.70;99.90
9975;DHT22;5028;50.974;4.968;2022-12-29T16:35:11;7.70;99.90
9975;DHT22;5028;50.974;4.968;2022-12-29T16:37:47;7.70;99.90
9975;DHT22;5028;50.974;4.968;2022-12-29T16:40:25;7.60;99.90
9975;DHT22;5028;50.974;4.968;2022-12-29T16:43:02;7.60;99.90
9975;DHT22;5028;50.974;4.968;2022-12-29T16:48:56;7.60;99.90
9975;DHT22;5028;50.974;4.968;2022-12-29T16:51:30;7.50;99.90
9975;DHT22;5028;50.974;4.968;2022-12-29T16:54:06;7.50;99.90
9975;DHT22;5028;50.974;4.968;2022-12-29T16:56:37;7.50;99.90
9975;DHT22;5028;50.974;4.968;2022-12-29T16:59:26;7.50;99.90
9975;DHT22;5028;50.974;4.968;2022-12-29T17:01:57;7.50;99.90
9975;DHT22;5028;50.974;4.968;2022-12-29T17:04:32;7.40;99.90
9975;DHT22;5028;50.974;4.968;2022-12-29T17:07:00;7.40;99.90
9975;DHT22;5028;50.974;4.968;2022-12-29T17:09:36;7.50;99.90
9975;DHT22;5028;50.974;4.968;2022-12-29T17:12:08;7.40;99.90
9975;DHT22;5028;50.974;4.968;2022-12-29T17:15:00;7.40;99.90
9975;DHT22;5028;50.974;4.968;2022-12-29T17:17:33;7.40;99.90
9975;DHT22;5028;50.974;4.968;2022-12-29T17:20:15;7.40;99.90
9975;DHT22;5028;50.974;4.968;2022-12-29T17:22:44;7.30;99.90